sensor_id;sensor_type;location;lat;lon;timestamp;temperature;humidity
1359;DHT22;673;48.098;14.422;2023-12-29T00:01:52;3.80;99.90
1359;DHT22;673;48.098;14.422;2023-12-29T00:04:21;3.80;99.90
1359;DHT22;673;48.098;14.422;2023-12-29T00:06:48;3.80;99.90
1359;DHT22;673;48.098;14.422;2023-12-29T00:09:15;3.80;99.90
1359;DHT22;673;48.098;14.422;2023-12-29T00:11:42;3.90;99.90
1359;DHT22;673;48.098;14.422;2023-12-29T00:14:09;3.90;99.90
1359;DHT22;673;48.098;14.422;2023-12-29T00:16:36;4.10;99.90
1359;DHT22;673;48.098;14.422;2023-12-29T00:19:03;4.20;99.90
1359;DHT22;673;48.098;14.422;2023-12-29T00:21:31;4.20;99.90
1359;DHT22;673;48.098;14.422;2023-12-29T00:23:59;4.20;99.90
1359;DHT22;673;48.098;14.422;2023-12-29T00:26:25;4.20;99.90
1359;DHT22;673;48.098;14.422;2023-12-29T00:28:53;4.20;99.90
1359;DHT22;673;48.098;14.422;2023-12-29T00:31:20;4.20;99.90
1359;DHT22;673;48.098;14.422;2023-12-29T00:33:47;4.10;99.90
1359;DHT22;673;48.098;14.422;2023-12-29T00:36:18;4.10;99.90
1359;DHT22;673;48.098;14.422;2023-12-29T00:38:47;4.10;99.90
1359;DHT22;673;48.098;14.422;2023-12-29T00:41:13;4.20;99.90
1359;DHT22;673;48.098;14.422;2023-12-29T00:43:40;4.30;99.90
1359;DHT22;673;48.098;14.422;2023-12-29T00:46:08;4.10;99.90
1359;DHT22;673;48.098;14.422;2023-12-29T00:48:35;4.00;99.90
1359;DHT22;673;48.098;14.422;2023-12-29T00:51:03;4.00;99.90
1359;DHT22;673;48.098;14.422;2023-12-29T00:53:32;3.90;99.90
1359;DHT22;673;48.098;14.422;2023-12-29T00:56:02;3.90;99.90
1359;DHT22;673;48.098;14.422;2023-12-29T00:58:29;3.90;99.90
1359;DHT22;673;48.098;14.422;2023-12-29T01:00:56;4.10;99.90
1359;DHT22;673;48.098;14.422;2023-12-29T01:03:23;4.20;99.90
1359;DHT22;673;48.098;14.422;2023-12-29T01:05:50;4.40;99.90
1359;DHT22;673;48.098;14.422;2023-12-29T01:08:17;4.60;99.90
1359;DHT22;673;48.098;14.422;2023-12-29T01:10:44;4.60;99.90
1359;DHT22;673;48.098;14.422;2023-12-29T01:13:12;4.70;99.90
1359;DHT22;673;48.098;14.422;2023-12-29T01:15:39;4.80;99.90
1359;DHT22;673;48.098;14.422;2023-12-29T01:18:10;4.80;99.90
1359;DHT22;673;48.098;14.422;2023-12-29T01:20:37;4.80;99.90
1359;DHT22;673;48.098;14.422;2023-12-29T01:23:04;4.70;99.90
1359;DHT22;673;48.098;14.422;2023-12-29T01:25:31;4.70;99.90
1359;DHT22;673;48.098;14.422;2023-12-29T01:27:58;4.60;99.90
1359;DHT22;673;48.098;14.422;2023-12-29T01:30:26;4.60;99.90
1359;DHT22;673;48.098;14.422;2023-12-29T01:32:53;4.60;99.90
1359;DHT22;673;48.098;14.422;2023-12-29T01:35:20;4.60;99.90
1359;DHT22;673;48.098;14.422;2023-12-29T01:37:47;4.70;99.90
1359;DHT22;673;48.098;14.422;2023-12-29T01:40:14;4.60;99.90
1359;DHT22;673;48.098;14.422;2023-12-29T01:42:43;4.70;99.90
1359;DHT22;673;48.098;14.422;2023-12-29T01:45:20;4.60;99.90
1359;DHT22;673;48.098;14.422;2023-12-29T01:47:50;4.60;99.90
1359;DHT22;673;48.098;14.422;2023-12-29T01:50:18;4.60;99.90
1359;DHT22;673;48.098;14.422;2023-12-29T01:52:46;4.60;99.90
1359;DHT22;673;48.098;14.422;2023-12-29T01:55:18;4.60;99.90
1359;DHT22;673;48.098;14.422;2023-12-29T01:57:46;4.60;99.90
1359;DHT22;673;48.098;14.422;2023-12-29T02:00:13;4.60;99.90
1359;DHT22;673;48.098;14.422;2023-12-29T02:02:42;4.60;99.90
1359;DHT22;673;48.098;14.422;2023-12-29T02:05:13;4.60;99.90
1359;DHT22;673;48.098;14.422;2023-12-29T02:07:41;4.70;99.90
1359;DHT22;673;48.098;14.422;2023-12-29T02:10:08;4.70;99.90
1359;DHT22;673;48.098;14.422;2023-12-29T02:12:35;4.70;99.90
1359;DHT22;673;48.098;14.422;2023-12-29T02:15:04;4.60;99.90
1359;DHT22;673;48.098;14.422;2023-12-29T02:17:37;4.50;99.90
1359;DHT22;673;48.098;14.422;2023-12-29T02:20:05;4.40;99.90
1359;DHT22;673;48.098;14.422;2023-12-29T02:22:35;4.40;99.90
1359;DHT22;673;48.098;14.422;2023-12-29T02:25:06;4.50;99.90
1359;DHT22;673;48.098;14.422;2023-12-29T02:27:39;4.50;99.90
1359;DHT22;673;48.098;14.422;2023-12-29T02:30:13;4.40;99.90
1359;DHT22;673;48.098;14.422;2023-12-29T02:32:43;4.40;99.90
1359;DHT22;673;48.098;14.422;2023-12-29T02:35:14;4.40;99.90
1359;DHT22;673;48.098;14.422;2023-12-29T02:37:42;4.40;99.90
1359;DHT22;673;48.098;14.422;2023-12-29T02:40:11;4.50;99.90
1359;DHT22;673;48.098;14.422;2023-12-29T02:42:38;4.40;99.90
1359;DHT22;673;48.098;14.422;2023-12-29T02:45:06;4.50;99.90
1359;DHT22;673;48.098;14.422;2023-12-29T02:47:33;4.60;99.90
1359;DHT22;673;48.098;14.422;2023-12-29T02:50:00;4.60;99.90
1359;DHT22;673;48.098;14.422;2023-12-29T02:52:27;4.70;99.90
1359;DHT22;673;48.098;14.422;2023-12-29T02:54:54;4.80;99.90
1359;DHT22;673;48.098;14.422;2023-12-29T02:57:22;4.90;99.90
1359;DHT22;673;48.098;14.422;2023-12-29T02:59:49;4.90;99.90
1359;DHT22;673;48.098;14.422;2023-12-29T03:02:16;5.00;99.90
1359;DHT22;673;48.098;14.422;2023-12-29T03:04:43;5.10;99.90
1359;DHT22;673;48.098;14.422;2023-12-29T03:07:10;5.10;99.90
1359;DHT22;673;48.098;14.422;2023-12-29T03:09:37;5.10;99.90
1359;DHT22;673;48.098;14.422;2023-12-29T03:12:04;5.10;99.90
1359;DHT22;673;48.098;14.422;2023-12-29T03:14:33;5.10;99.90
1359;DHT22;673;48.098;14.422;2023-12-29T03:17:00;5.10;99.90
1359;DHT22;673;48.098;14.422;2023-12-29T03:19:27;5.00;99.90
1359;DHT22;673;48.098;14.422;2023-12-29T03:21:54;4.90;99.90
1359;DHT22;673;48.098;14.422;2023-12-29T03:24:21;4.90;99.90
1359;DHT22;673;48.098;14.422;2023-12-29T03:26:48;4.80;99.90
1359;DHT22;673;48.098;14.422;2023-12-29T03:29:15;4.70;99.90
1359;DHT22;673;48.098;14.422;2023-12-29T03:31:43;4.50;99.90
1359;DHT22;673;48.098;14.422;2023-12-29T03:34:10;4.30;99.90
1359;DHT22;673;48.098;14.422;2023-12-29T03:36:37;4.10;99.90
1359;DHT22;673;48.098;14.422;2023-12-29T03:39:04;4.00;99.90
1359;DHT22;673;48.098;14.422;2023-12-29T03:41:31;3.90;99.90
1359;DHT22;673;48.098;14.422;2023-12-29T03:43:58;3.90;99.90
1359;DHT22;673;48.098;14.422;2023-12-29T03:46:25;3.90;99.90
1359;DHT22;673;48.098;14.422;2023-12-29T03:48:54;3.80;99.90
1359;DHT22;673;48.098;14.422;2023-12-29T03:51:21;3.70;99.90
1359;DHT22;673;48.098;14.422;2023-12-29T03:53:47;3.80;99.90
1359;DHT22;673;48.098;14.422;2023-12-29T03:56:16;3.90;99.90
1359;DHT22;673;48.098;14.422;2023-12-29T03:58:43;3.90;99.90
1359;DHT22;673;48.098;14.422;2023-12-29T04:01:10;4.00;99.90
1359;DHT22;673;48.098;14.422;2023-12-29T04:03:37;4.10;99.90
1359;DHT22;673;48.098;14.422;2023-12-29T04:06:06;4.10;99.90
1359;DHT22;673;48.098;14.422;2023-12-29T04:08:33;4.10;99.90
1359;DHT22;673;48.098;14.422;2023-12-29T04:11:01;4.00;99.90
1359;DHT22;673;48.098;14.422;2023-12-29T04:13:28;3.90;99.90
1359;DHT22;673;48.098;14.422;2023-12-29T04:15:55;4.00;99.90
1359;DHT22;673;48.098;14.422;2023-12-29T04:18:23;3.90;99.90
1359;DHT22;673;48.098;14.422;2023-12-29T04:20:50;3.90;99.90
1359;DHT22;673;48.098;14.422;2023-12-29T04:23:18;4.00;99.90
1359;DHT22;673;48.098;14.422;2023-12-29T04:25:45;4.00;99.90
1359;DHT22;673;48.098;14.422;2023-12-29T04:28:12;4.00;99.90
1359;DHT22;673;48.098;14.422;2023-12-29T04:30:39;3.90;99.90
1359;DHT22;673;48.098;14.422;2023-12-29T04:33:06;3.90;99.90
1359;DHT22;673;48.098;14.422;2023-12-29T04:35:33;3.90;99.90
1359;DHT22;673;48.098;14.422;2023-12-29T04:38:00;4.00;99.90
1359;DHT22;673;48.098;14.422;2023-12-29T04:40:29;3.90;99.90
1359;DHT22;673;48.098;14.422;2023-12-29T04:42:55;4.00;99.90
1359;DHT22;673;48.098;14.422;2023-12-29T04:45:22;4.00;99.90
1359;DHT22;673;48.098;14.422;2023-12-29T04:47:49;4.10;99.90
1359;DHT22;673;48.098;14.422;2023-12-29T04:50:16;4.20;99.90
1359;DHT22;673;48.098;14.422;2023-12-29T04:52:43;4.10;99.90
1359;DHT22;673;48.098;14.422;2023-12-29T04:55:10;4.10;99.90
1359;DHT22;673;48.098;14.422;2023-12-29T04:57:40;3.90;99.90
1359;DHT22;673;48.098;14.422;2023-12-29T05:00:07;3.80;99.90
1359;DHT22;673;48.098;14.422;2023-12-29T05:02:34;3.80;99.90
1359;DHT22;673;48.098;14.422;2023-12-29T05:05:02;3.80;99.90
1359;DHT22;673;48.098;14.422;2023-12-29T05:07:28;3.70;99.90
1359;DHT22;673;48.098;14.422;2023-12-29T05:09:55;3.70;99.90
1359;DHT22;673;48.098;14.422;2023-12-29T05:12:22;3.60;99.90
1359;DHT22;673;48.098;14.422;2023-12-29T05:14:51;3.60;99.90
1359;DHT22;673;48.098;14.422;2023-12-29T05:17:18;3.70;99.90
1359;DHT22;673;48.098;14.422;2023-12-29T05:19:45;3.60;99.90
1359;DHT22;673;48.098;14.422;2023-12-29T05:22:11;3.70;99.90
1359;DHT22;673;48.098;14.422;2023-12-29T05:24:43;3.70;99.90
1359;DHT22;673;48.098;14.422;2023-12-29T05:27:10;3.70;99.90
1359;DHT22;673;48.098;14.422;2023-12-29T05:29:37;3.70;99.90
1359;DHT22;673;48.098;14.422;2023-12-29T05:32:06;3.70;99.90
1359;DHT22;673;48.098;14.422;2023-12-29T05:34:34;3.70;99.90
1359;DHT22;673;48.098;14.422;2023-12-29T05:37:01;3.80;99.90
1359;DHT22;673;48.098;14.422;2023-12-29T05:39:28;3.80;99.90
1359;DHT22;673;48.098;14.422;2023-12-29T05:41:55;3.90;99.90
1359;DHT22;673;48.098;14.422;2023-12-29T05:44:22;4.00;99.90
1359;DHT22;673;48.098;14.422;2023-12-29T05:46:50;4.20;99.90
1359;DHT22;673;48.098;14.422;2023-12-29T05:49:18;4.30;99.90
1359;DHT22;673;48.098;14.422;2023-12-29T05:51:45;4.40;99.90
1359;DHT22;673;48.098;14.422;2023-12-29T05:54:12;4.50;99.90
1359;DHT22;673;48.098;14.422;2023-12-29T05:56:39;4.50;99.90
1359;DHT22;673;48.098;14.422;2023-12-29T05:59:06;4.50;99.90
1359;DHT22;673;48.098;14.422;2023-12-29T06:01:33;4.50;99.90
1359;DHT22;673;48.098;14.422;2023-12-29T06:04:00;4.60;99.90
1359;DHT22;673;48.098;14.422;2023-12-29T06:06:29;4.60;99.90
1359;DHT22;673;48.098;14.422;2023-12-29T06:08:56;4.40;99.90
1359;DHT22;673;48.098;14.422;2023-12-29T06:11:23;4.40;99.90
1359;DHT22;673;48.098;14.422;2023-12-29T06:13:50;4.30;99.90
1359;DHT22;673;48.098;14.422;2023-12-29T06:16:18;4.30;99.90
1359;DHT22;673;48.098;14.422;2023-12-29T06:18:45;4.20;99.90
1359;DHT22;673;48.098;14.422;2023-12-29T06:21:12;4.20;99.90
1359;DHT22;673;48.098;14.422;2023-12-29T06:23:40;4.20;99.90
1359;DHT22;673;48.098;14.422;2023-12-29T06:26:15;4.10;99.90
1359;DHT22;673;48.098;14.422;2023-12-29T06:28:43;4.00;99.90
1359;DHT22;673;48.098;14.422;2023-12-29T06:31:11;4.00;99.90
1359;DHT22;673;48.098;14.422;2023-12-29T06:33:40;4.00;99.90
1359;DHT22;673;48.098;14.422;2023-12-29T06:36:07;4.20;99.90
1359;DHT22;673;48.098;14.422;2023-12-29T06:38:35;4.20;99.90
1359;DHT22;673;48.098;14.422;2023-12-29T06:41:04;4.20;99.90
1359;DHT22;673;48.098;14.422;2023-12-29T06:43:31;4.30;99.90
1359;DHT22;673;48.098;14.422;2023-12-29T06:46:00;4.10;99.90
1359;DHT22;673;48.098;14.422;2023-12-29T06:48:27;4.10;99.90
1359;DHT22;673;48.098;14.422;2023-12-29T06:50:54;4.10;99.90
1359;DHT22;673;48.098;14.422;2023-12-29T06:53:21;4.10;99.90
1359;DHT22;673;48.098;14.422;2023-12-29T06:55:49;4.10;99.90
1359;DHT22;673;48.098;14.422;2023-12-29T06:58:17;4.10;99.90
1359;DHT22;673;48.098;14.422;2023-12-29T07:00:44;4.10;99.90
1359;DHT22;673;48.098;14.422;2023-12-29T07:03:13;4.10;99.90
1359;DHT22;673;48.098;14.422;2023-12-29T07:05:43;4.20;99.90
1359;DHT22;673;48.098;14.422;2023-12-29T07:08:15;4.20;99.90
1359;DHT22;673;48.098;14.422;2023-12-29T07:10:42;4.30;99.90
1359;DHT22;673;48.098;14.422;2023-12-29T07:13:10;4.30;99.90
1359;DHT22;673;48.098;14.422;2023-12-29T07:15:38;4.40;99.90
1359;DHT22;673;48.098;14.422;2023-12-29T07:18:05;4.50;99.90
1359;DHT22;673;48.098;14.422;2023-12-29T07:20:32;4.40;99.90
1359;DHT22;673;48.098;14.422;2023-12-29T07:23:00;4.20;99.90
1359;DHT22;673;48.098;14.422;2023-12-29T07:25:27;4.20;99.90
1359;DHT22;673;48.098;14.422;2023-12-29T07:27:54;4.20;99.90
1359;DHT22;673;48.098;14.422;2023-12-29T07:30:22;4.20;99.90
1359;DHT22;673;48.098;14.422;2023-12-29T07:32:50;4.40;99.90
1359;DHT22;673;48.098;14.422;2023-12-29T07:35:17;4.50;99.90
1359;DHT22;673;48.098;14.422;2023-12-29T07:37:45;4.50;99.90
1359;DHT22;673;48.098;14.422;2023-12-29T07:40:13;4.60;99.90
1359;DHT22;673;48.098;14.422;2023-12-29T07:42:40;4.70;99.90
1359;DHT22;673;48.098;14.422;2023-12-29T07:45:09;4.80;99.90
1359;DHT22;673;48.098;14.422;2023-12-29T07:47:36;5.00;99.90
1359;DHT22;673;48.098;14.422;2023-12-29T07:50:05;5.10;99.90
1359;DHT22;673;48.098;14.422;2023-12-29T07:52:32;5.10;99.90
1359;DHT22;673;48.098;14.422;2023-12-29T07:54:59;5.20;99.90
1359;DHT22;673;48.098;14.422;2023-12-29T07:57:26;5.20;99.90
1359;DHT22;673;48.098;14.422;2023-12-29T07:59:53;5.50;99.90
1359;DHT22;673;48.098;14.422;2023-12-29T08:02:20;6.00;99.90
1359;DHT22;673;48.098;14.422;2023-12-29T08:04:46;6.50;99.90
1359;DHT22;673;48.098;14.422;2023-12-29T08:07:15;7.00;99.90
1359;DHT22;673;48.098;14.422;2023-12-29T08:09:42;7.20;99.90
1359;DHT22;673;48.098;14.422;2023-12-29T08:12:08;7.40;99.90
1359;DHT22;673;48.098;14.422;2023-12-29T08:14:35;7.40;99.90
1359;DHT22;673;48.098;14.422;2023-12-29T08:17:02;7.40;99.90
1359;DHT22;673;48.098;14.422;2023-12-29T08:19:29;7.30;99.90
1359;DHT22;673;48.098;14.422;2023-12-29T08:21:56;7.10;99.90
1359;DHT22;673;48.098;14.422;2023-12-29T08:24:24;7.00;99.90
1359;DHT22;673;48.098;14.422;2023-12-29T08:26:52;6.90;99.90
1359;DHT22;673;48.098;14.422;2023-12-29T08:29:19;6.80;99.90
1359;DHT22;673;48.098;14.422;2023-12-29T08:31:46;6.90;99.90
1359;DHT22;673;48.098;14.422;2023-12-29T08:34:13;6.90;99.90
1359;DHT22;673;48.098;14.422;2023-12-29T08:36:40;7.00;99.90
1359;DHT22;673;48.098;14.422;2023-12-29T08:39:07;7.20;99.90
1359;DHT22;673;48.098;14.422;2023-12-29T08:41:36;7.30;99.90
1359;DHT22;673;48.098;14.422;2023-12-29T08:44:03;7.30;99.90
1359;DHT22;673;48.098;14.422;2023-12-29T08:46:30;7.30;99.90
1359;DHT22;673;48.098;14.422;2023-12-29T08:48:57;7.20;99.90
1359;DHT22;673;48.098;14.422;2023-12-29T08:51:24;7.10;99.90
1359;DHT22;673;48.098;14.422;2023-12-29T08:53:51;7.20;99.90
1359;DHT22;673;48.098;14.422;2023-12-29T08:56:18;7.40;99.90
1359;DHT22;673;48.098;14.422;2023-12-29T08:58:46;7.40;99.90
1359;DHT22;673;48.098;14.422;2023-12-29T09:01:13;7.40;99.90
1359;DHT22;673;48.098;14.422;2023-12-29T09:03:40;7.50;99.90
1359;DHT22;673;48.098;14.422;2023-12-29T09:06:08;7.60;99.90
1359;DHT22;673;48.098;14.422;2023-12-29T09:08:35;7.60;99.90
1359;DHT22;673;48.098;14.422;2023-12-29T09:11:02;7.70;99.90
1359;DHT22;673;48.098;14.422;2023-12-29T09:13:29;7.70;99.90
1359;DHT22;673;48.098;14.422;2023-12-29T09:15:59;7.70;99.90
1359;DHT22;673;48.098;14.422;2023-12-29T09:18:26;7.80;99.90
1359;DHT22;673;48.098;14.422;2023-12-29T09:20:53;7.80;99.90
1359;DHT22;673;48.098;14.422;2023-12-29T09:23:20;7.90;99.90
1359;DHT22;673;48.098;14.422;2023-12-29T09:25:47;7.90;99.90
1359;DHT22;673;48.098;14.422;2023-12-29T09:28:13;7.90;99.90
1359;DHT22;673;48.098;14.422;2023-12-29T09:30:40;7.90;99.90
1359;DHT22;673;48.098;14.422;2023-12-29T09:33:09;7.70;99.90
1359;DHT22;673;48.098;14.422;2023-12-29T09:35:38;7.80;99.90
1359;DHT22;673;48.098;14.422;2023-12-29T09:38:05;7.80;99.90
1359;DHT22;673;48.098;14.422;2023-12-29T09:40:32;7.90;99.90
1359;DHT22;673;48.098;14.422;2023-12-29T09:43:01;7.80;99.90
1359;DHT22;673;48.098;14.422;2023-12-29T09:45:30;7.70;99.90
1359;DHT22;673;48.098;14.422;2023-12-29T09:47:57;7.80;99.90
1359;DHT22;673;48.098;14.422;2023-12-29T09:50:26;7.80;99.90
1359;DHT22;673;48.098;14.422;2023-12-29T09:52:54;7.80;99.90
1359;DHT22;673;48.098;14.422;2023-12-29T09:55:21;7.70;99.90
1359;DHT22;673;48.098;14.422;2023-12-29T09:57:49;7.60;99.90
1359;DHT22;673;48.098;14.422;2023-12-29T10:00:18;7.70;99.90
1359;DHT22;673;48.098;14.422;2023-12-29T10:02:50;7.90;99.90
1359;DHT22;673;48.098;14.422;2023-12-29T10:05:18;7.90;99.90
1359;DHT22;673;48.098;14.422;2023-12-29T10:07:46;8.00;99.90
1359;DHT22;673;48.098;14.422;2023-12-29T10:10:15;8.10;99.90
1359;DHT22;673;48.098;14.422;2023-12-29T10:12:43;8.30;99.90
1359;DHT22;673;48.098;14.422;2023-12-29T10:15:15;8.50;99.90
1359;DHT22;673;48.098;14.422;2023-12-29T10:17:51;8.50;99.90
1359;DHT22;673;48.098;14.422;2023-12-29T10:20:29;8.40;99.90
1359;DHT22;673;48.098;14.422;2023-12-29T10:23:06;8.40;99.90
1359;DHT22;673;48.098;14.422;2023-12-29T10:25:34;8.50;99.90
1359;DHT22;673;48.098;14.422;2023-12-29T10:28:02;8.60;99.90
1359;DHT22;673;48.098;14.422;2023-12-29T10:30:30;8.40;99.90
1359;DHT22;673;48.098;14.422;2023-12-29T10:32:57;8.20;99.90
1359;DHT22;673;48.098;14.422;2023-12-29T10:35:26;8.10;99.90
1359;DHT22;673;48.098;14.422;2023-12-29T10:37:53;8.00;99.90
1359;DHT22;673;48.098;14.422;2023-12-29T10:40:21;8.00;99.90
1359;DHT22;673;48.098;14.422;2023-12-29T10:42:54;8.00;99.90
1359;DHT22;673;48.098;14.422;2023-12-29T10:45:23;8.10;99.90
1359;DHT22;673;48.098;14.422;2023-12-29T10:47:51;8.00;99.90
1359;DHT22;673;48.098;14.422;2023-12-29T10:50:18;8.00;99.90
1359;DHT22;673;48.098;14.422;2023-12-29T10:52:45;8.10;99.90
1359;DHT22;673;48.098;14.422;2023-12-29T10:55:12;8.20;99.90
1359;DHT22;673;48.098;14.422;2023-12-29T10:57:41;8.20;99.90
1359;DHT22;673;48.098;14.422;2023-12-29T11:00:09;8.30;99.90
1359;DHT22;673;48.098;14.422;2023-12-29T11:02:38;8.40;99.90
1359;DHT22;673;48.098;14.422;2023-12-29T11:05:07;8.40;99.90
1359;DHT22;673;48.098;14.422;2023-12-29T11:07:35;8.40;99.90
1359;DHT22;673;48.098;14.422;2023-12-29T11:10:04;8.30;99.90
1359;DHT22;673;48.098;14.422;2023-12-29T11:12:35;8.30;99.90
1359;DHT22;673;48.098;14.422;2023-12-29T11:15:05;8.30;99.90
1359;DHT22;673;48.098;14.422;2023-12-29T11:17:35;8.30;99.90
1359;DHT22;673;48.098;14.422;2023-12-29T11:20:03;8.40;99.90
1359;DHT22;673;48.098;14.422;2023-12-29T11:22:31;8.50;99.90
1359;DHT22;673;48.098;14.422;2023-12-29T11:24:59;8.60;99.90
1359;DHT22;673;48.098;14.422;2023-12-29T11:27:28;8.70;99.90
1359;DHT22;673;48.098;14.422;2023-12-29T11:29:57;8.70;99.90
1359;DHT22;673;48.098;14.422;2023-12-29T11:32:35;8.70;99.90
1359;DHT22;673;48.098;14.422;2023-12-29T11:35:21;8.80;99.90
1359;DHT22;673;48.098;14.422;2023-12-29T11:38:08;8.80;99.90
1359;DHT22;673;48.098;14.422;2023-12-29T11:40:44;8.70;99.90
1359;DHT22;673;48.098;14.422;2023-12-29T11:43:15;8.80;99.90
1359;DHT22;673;48.098;14.422;2023-12-29T11:45:43;8.60;99.90
1359;DHT22;673;48.098;14.422;2023-12-29T11:48:13;8.60;99.90
1359;DHT22;673;48.098;14.422;2023-12-29T11:51:00;8.50;99.90
1359;DHT22;673;48.098;14.422;2023-12-29T11:53:31;8.40;99.90
1359;DHT22;673;48.098;14.422;2023-12-29T11:55:58;8.20;99.90
1359;DHT22;673;48.098;14.422;2023-12-29T11:58:26;8.20;99.90
1359;DHT22;673;48.098;14.422;2023-12-29T12:00:55;8.20;99.90
1359;DHT22;673;48.098;14.422;2023-12-29T12:03:26;8.10;99.90
1359;DHT22;673;48.098;14.422;2023-12-29T12:05:54;8.20;99.90
1359;DHT22;673;48.098;14.422;2023-12-29T12:08:28;8.20;99.90
1359;DHT22;673;48.098;14.422;2023-12-29T12:10:56;8.20;99.90
1359;DHT22;673;48.098;14.422;2023-12-29T12:13:44;8.20;99.90
1359;DHT22;673;48.098;14.422;2023-12-29T12:16:48;8.30;99.90
1359;DHT22;673;48.098;14.422;2023-12-29T12:19:17;8.30;99.90
1359;DHT22;673;48.098;14.422;2023-12-29T12:21:47;8.30;99.90
1359;DHT22;673;48.098;14.422;2023-12-29T12:24:16;8.40;99.90
1359;DHT22;673;48.098;14.422;2023-12-29T12:26:45;8.60;99.90
1359;DHT22;673;48.098;14.422;2023-12-29T12:29:14;8.70;99.90
1359;DHT22;673;48.098;14.422;2023-12-29T12:31:52;8.70;99.90
1359;DHT22;673;48.098;14.422;2023-12-29T12:34:20;8.70;99.90
1359;DHT22;673;48.098;14.422;2023-12-29T12:36:48;8.80;99.90
1359;DHT22;673;48.098;14.422;2023-12-29T12:39:16;8.90;99.90
1359;DHT22;673;48.098;14.422;2023-12-29T12:41:44;8.90;99.90
1359;DHT22;673;48.098;14.422;2023-12-29T12:44:12;9.00;99.90
1359;DHT22;673;48.098;14.422;2023-12-29T12:46:41;9.10;99.90
1359;DHT22;673;48.098;14.422;2023-12-29T12:49:11;9.20;99.90
1359;DHT22;673;48.098;14.422;2023-12-29T12:51:41;9.20;99.90
1359;DHT22;673;48.098;14.422;2023-12-29T12:54:10;9.30;99.90
1359;DHT22;673;48.098;14.422;2023-12-29T12:56:41;9.20;99.90
1359;DHT22;673;48.098;14.422;2023-12-29T12:59:08;9.30;99.90
1359;DHT22;673;48.098;14.422;2023-12-29T13:01:36;9.30;99.90
1359;DHT22;673;48.098;14.422;2023-12-29T13:04:04;9.30;99.90
1359;DHT22;673;48.098;14.422;2023-12-29T13:06:32;9.30;99.90
1359;DHT22;673;48.098;14.422;2023-12-29T13:09:01;9.20;99.90
1359;DHT22;673;48.098;14.422;2023-12-29T13:11:30;9.20;99.90
1359;DHT22;673;48.098;14.422;2023-12-29T13:13:57;9.10;99.90
1359;DHT22;673;48.098;14.422;2023-12-29T13:16:30;9.10;99.90
1359;DHT22;673;48.098;14.422;2023-12-29T13:19:15;9.00;99.90
1359;DHT22;673;48.098;14.422;2023-12-29T13:21:46;9.00;99.90
1359;DHT22;673;48.098;14.422;2023-12-29T13:24:15;9.00;99.90
1359;DHT22;673;48.098;14.422;2023-12-29T13:26:44;9.00;99.90
1359;DHT22;673;48.098;14.422;2023-12-29T13:29:12;9.00;99.90
1359;DHT22;673;48.098;14.422;2023-12-29T13:31:40;9.10;99.90
1359;DHT22;673;48.098;14.422;2023-12-29T13:34:12;9.10;99.90
1359;DHT22;673;48.098;14.422;2023-12-29T13:36:49;9.00;99.90
1359;DHT22;673;48.098;14.422;2023-12-29T13:39:27;8.90;99.90
1359;DHT22;673;48.098;14.422;2023-12-29T13:41:56;8.90;99.90
1359;DHT22;673;48.098;14.422;2023-12-29T13:44:25;8.90;99.90
1359;DHT22;673;48.098;14.422;2023-12-29T13:46:53;8.90;99.90
1359;DHT22;673;48.098;14.422;2023-12-29T13:49:21;8.90;99.90
1359;DHT22;673;48.098;14.422;2023-12-29T13:51:48;8.90;99.90
1359;DHT22;673;48.098;14.422;2023-12-29T13:54:18;8.90;99.90
1359;DHT22;673;48.098;14.422;2023-12-29T13:56:51;8.80;99.90
1359;DHT22;673;48.098;14.422;2023-12-29T13:59:19;8.80;99.90
1359;DHT22;673;48.098;14.422;2023-12-29T14:01:55;8.80;99.90
1359;DHT22;673;48.098;14.422;2023-12-29T14:04:21;8.90;99.90
1359;DHT22;673;48.098;14.422;2023-12-29T14:06:52;9.00;99.90
1359;DHT22;673;48.098;14.422;2023-12-29T14:09:21;9.10;99.90
1359;DHT22;673;48.098;14.422;2023-12-29T14:11:48;9.20;99.90
1359;DHT22;673;48.098;14.422;2023-12-29T14:14:21;9.30;99.90
1359;DHT22;673;48.098;14.422;2023-12-29T14:16:49;9.30;99.90
1359;DHT22;673;48.098;14.422;2023-12-29T14:19:16;9.40;99.90
1359;DHT22;673;48.098;14.422;2023-12-29T14:21:44;9.60;99.90
1359;DHT22;673;48.098;14.422;2023-12-29T14:24:12;9.60;99.90
1359;DHT22;673;48.098;14.422;2023-12-29T14:26:53;9.80;99.90
1359;DHT22;673;48.098;14.422;2023-12-29T14:29:22;9.90;99.90
1359;DHT22;673;48.098;14.422;2023-12-29T14:31:49;10.00;99.90
1359;DHT22;673;48.098;14.422;2023-12-29T14:34:17;10.00;99.90
1359;DHT22;673;48.098;14.422;2023-12-29T14:36:45;9.90;99.90
1359;DHT22;673;48.098;14.422;2023-12-29T14:39:12;9.80;99.90
1359;DHT22;673;48.098;14.422;2023-12-29T14:41:42;9.70;99.90
1359;DHT22;673;48.098;14.422;2023-12-29T14:44:09;9.60;99.90
1359;DHT22;673;48.098;14.422;2023-12-29T14:46:36;9.40;99.90
1359;DHT22;673;48.098;14.422;2023-12-29T14:49:04;9.40;99.90
1359;DHT22;673;48.098;14.422;2023-12-29T14:51:31;9.30;99.90
1359;DHT22;673;48.098;14.422;2023-12-29T14:53:58;9.40;99.90
1359;DHT22;673;48.098;14.422;2023-12-29T14:56:25;9.60;99.90
1359;DHT22;673;48.098;14.422;2023-12-29T14:58:53;9.60;99.90
1359;DHT22;673;48.098;14.422;2023-12-29T15:01:20;9.70;99.90
1359;DHT22;673;48.098;14.422;2023-12-29T15:03:47;9.80;99.90
1359;DHT22;673;48.098;14.422;2023-12-29T15:06:14;9.90;99.90
1359;DHT22;673;48.098;14.422;2023-12-29T15:08:41;9.90;99.90
1359;DHT22;673;48.098;14.422;2023-12-29T15:11:08;9.90;99.90
1359;DHT22;673;48.098;14.422;2023-12-29T15:13:35;10.00;99.90
1359;DHT22;673;48.098;14.422;2023-12-29T15:16:05;9.90;99.90
1359;DHT22;673;48.098;14.422;2023-12-29T15:18:33;9.90;99.90
1359;DHT22;673;48.098;14.422;2023-12-29T15:21:00;10.00;99.90
1359;DHT22;673;48.098;14.422;2023-12-29T15:23:27;10.10;99.90
1359;DHT22;673;48.098;14.422;2023-12-29T15:25:54;10.00;99.90
1359;DHT22;673;48.098;14.422;2023-12-29T15:28:21;10.00;99.90
1359;DHT22;673;48.098;14.422;2023-12-29T15:30:48;9.90;99.90
1359;DHT22;673;48.098;14.422;2023-12-29T15:33:17;9.80;99.90
1359;DHT22;673;48.098;14.422;2023-12-29T15:35:44;9.80;99.90
1359;DHT22;673;48.098;14.422;2023-12-29T15:38:11;9.70;99.90
1359;DHT22;673;48.098;14.422;2023-12-29T15:40:39;9.70;99.90
1359;DHT22;673;48.098;14.422;2023-12-29T15:43:06;9.70;99.90
1359;DHT22;673;48.098;14.422;2023-12-29T15:45:34;9.60;99.90
1359;DHT22;673;48.098;14.422;2023-12-29T15:48:01;9.50;99.90
1359;DHT22;673;48.098;14.422;2023-12-29T15:50:30;9.40;99.90
1359;DHT22;673;48.098;14.422;2023-12-29T15:52:57;9.20;99.90
1359;DHT22;673;48.098;14.422;2023-12-29T15:55:24;9.10;99.90
1359;DHT22;673;48.098;14.422;2023-12-29T15:57:51;9.10;99.90
1359;DHT22;673;48.098;14.422;2023-12-29T16:00:18;9.00;99.90
1359;DHT22;673;48.098;14.422;2023-12-29T16:02:46;8.90;99.90
1359;DHT22;673;48.098;14.422;2023-12-29T16:05:13;9.00;99.90
1359;DHT22;673;48.098;14.422;2023-12-29T16:07:41;8.90;99.90
1359;DHT22;673;48.098;14.422;2023-12-29T16:10:09;8.80;99.90
1359;DHT22;673;48.098;14.422;2023-12-29T16:12:36;8.80;99.90
1359;DHT22;673;48.098;14.422;2023-12-29T16:15:03;8.70;99.90
1359;DHT22;673;48.098;14.422;2023-12-29T16:17:31;8.70;99.90
1359;DHT22;673;48.098;14.422;2023-12-29T16:19:58;8.70;99.90
1359;DHT22;673;48.098;14.422;2023-12-29T16:22:24;8.70;99.90
1359;DHT22;673;48.098;14.422;2023-12-29T16:24:53;8.70;99.90